Terminal Aerodrome Forecast
Issued by NWS Flagstaff, AZ

Home | Current Version | Previous Version | Text Only | Print | Product List | Glossary On
Versions: 1 2 3 4 5 6 7 8 9 10 11 12 13 14 15 16
874
FTUS45 KFGZ 260540
TAFFLG
TAF
KFLG 260540Z 2606/2706 23015KT P6SM BKN050 OVC120
      TEMPO 2606/2608 -SN SCT030 BKN040 OVC090
     FM260900 23007KT P6SM FEW030 BKN050 OVC090
     FM261200 22005KT P6SM VCSH SCT030 OVC050
      TEMPO 2614/2618 5SM -SN BKN030
     FM262100 21010G20KT P6SM OVC030=

USA.gov is the U.S. government's official web portal to all federal, state and local government web resources and services.